Time;durP1;ratioP1;P1;durP2;ratioP2;P2;SDS_P1;SDS_P2;PMS_P1;PMS_P2;Temp;Humidity;BMP_temperature;BMP_pressure;BME280_temperature;BME280_humidity;BME280_pressure;Samples;Min_cycle;Max_cycle;Signal;HPM_P1;HPM_P2
2024/01/15 00:01:44;;;;;;;0.20;0.20;;;;;;;;;;5074371;28;20406;-73
2024/01/15 00:04:10;;;;;;;0.13;0.13;;;;;;;;;;5074357;28;20460;-72
2024/01/15 00:06:36;;;;;;;0.13;0.13;;;;;;;;;;5074042;28;20097;-72
2024/01/15 00:09:02;;;;;;;0.17;0.17;;;;;;;;;;5074271;28;20495;-72
2024/01/15 00:11:27;;;;;;;0.10;0.10;;;;;;;;;;5073960;28;20021;-71
2024/01/15 00:13:53;;;;;;;0.10;0.10;;;;;;;;;;5074752;28;20479;-70
2024/01/15 00:16:19;;;;;;;0.20;0.20;;;;;;;;;;5074181;28;20032;-70
2024/01/15 00:18:44;;;;;;;0.50;0.50;;;;;;;;;;5074178;28;20032;-70
2024/01/15 00:21:10;;;;;;;0.20;0.20;;;;;;;;;;5074135;28;20642;-70
2024/01/15 00:23:35;;;;;;;0.10;0.10;;;;;;;;;;5073849;28;20028;-70
2024/01/15 00:26:01;;;;;;;0.10;0.10;;;;;;;;;;5073705;28;20467;-70
2024/01/15 00:28:27;;;;;;;0.20;0.20;;;;;;;;;;5074053;28;20463;-70
2024/01/15 00:30:52;;;;;;;0.20;0.20;;;;;;;;;;5073916;28;20012;-70
2024/01/15 00:33:18;;;;;;;0.20;0.20;;;;;;;;;;5073512;28;20040;-71
2024/01/15 00:35:43;;;;;;;0.20;0.20;;;;;;;;;;5074117;28;20025;-70
2024/01/15 00:38:09;;;;;;;0.20;0.20;;;;;;;;;;5073613;28;20020;-71
2024/01/15 00:40:34;;;;;;;0.28;0.28;;;;;;;;;;5073601;28;20371;-71
2024/01/15 00:43:02;;;;;;;0.20;0.20;;;;;;;;;;5074453;28;20024;-72
2024/01/15 00:45:27;;;;;;;0.30;0.30;;;;;;;;;;5072948;28;20036;-70
2024/01/15 00:47:53;;;;;;;0.10;0.10;;;;;;;;;;5074412;28;20564;-71
2024/01/15 00:50:18;;;;;;;0.20;0.20;;;;;;;;;;5073744;28;20495;-70
2024/01/15 00:52:44;;;;;;;0.15;0.15;;;;;;;;;;5073855;28;20038;-72
2024/01/15 00:55:09;;;;;;;0.20;0.20;;;;;;;;;;5073717;28;20447;-71
2024/01/15 00:57:35;;;;;;;0.25;0.25;;;;;;;;;;5074051;28;20097;-71
2024/01/15 01:00:01;;;;;;;0.20;0.20;;;;;;;;;;5073774;28;20476;-71
2024/01/15 01:02:27;;;;;;;0.52;0.52;;;;;;;;;;5074869;28;20103;-71
2024/01/15 01:04:52;;;;;;;0.10;0.10;;;;;;;;;;5077802;28;20111;-71
2024/01/15 01:07:19;;;;;;;0.20;0.20;;;;;;;;;;5077464;28;20013;-71
2024/01/15 01:09:45;;;;;;;0.10;0.10;;;;;;;;;;5078003;28;20099;-71
2024/01/15 01:12:11;;;;;;;0.20;0.20;;;;;;;;;;5077928;28;20463;-71
2024/01/15 01:14:37;;;;;;;0.22;0.22;;;;;;;;;;5077282;28;20044;-71
2024/01/15 01:17:03;;;;;;;0.17;0.17;;;;;;;;;;5077308;28;20352;-71
2024/01/15 01:19:28;;;;;;;0.10;0.10;;;;;;;;;;5077770;28;20024;-72
2024/01/15 01:21:54;;;;;;;0.10;0.10;;;;;;;;;;5077165;28;20103;-72
2024/01/15 01:24:19;;;;;;;0.20;0.20;;;;;;;;;;5077483;28;20081;-71
2024/01/15 01:26:46;;;;;;;0.10;0.10;;;;;;;;;;5077419;28;20016;-71
2024/01/15 01:29:12;;;;;;;0.10;0.10;;;;;;;;;;5077324;28;20337;-70
2024/01/15 01:31:42;;;;;;;0.10;0.10;;;;;;;;;;5077889;28;20016;-71
2024/01/15 01:34:07;;;;;;;0.10;0.10;;;;;;;;;;5076440;28;20032;-70
2024/01/15 01:36:33;;;;;;;0.10;0.10;;;;;;;;;;5077756;28;20458;-71
2024/01/15 01:38:58;;;;;;;0.10;0.10;;;;;;;;;;5077083;28;20074;-70
2024/01/15 01:41:24;;;;;;;0.10;0.10;;;;;;;;;;5077096;28;20368;-72
2024/01/15 01:43:50;;;;;;;0.10;0.10;;;;;;;;;;5076769;28;20122;-71
2024/01/15 01:46:15;;;;;;;0.10;0.10;;;;;;;;;;5076738;28;20029;-71
2024/01/15 01:48:41;;;;;;;0.17;0.17;;;;;;;;;;5076695;28;20024;-70
2024/01/15 01:51:07;;;;;;;0.20;0.20;;;;;;;;;;5077003;28;20589;-72
2024/01/15 01:53:35;;;;;;;0.20;0.20;;;;;;;;;;5076859;28;20026;-72
2024/01/15 01:56:00;;;;;;;0.10;0.10;;;;;;;;;;5076746;28;20025;-71
2024/01/15 01:58:27;;;;;;;0.10;0.10;;;;;;;;;;5077231;28;20034;-72
2024/01/15 02:00:53;;;;;;;0.10;0.10;;;;;;;;;;5076726;28;20019;-71
2024/01/15 02:03:20;;;;;;;0.20;0.20;;;;;;;;;;5076621;28;20025;-72
2024/01/15 02:05:48;;;;;;;0.20;0.20;;;;;;;;;;5076912;28;20021;-72
2024/01/15 02:08:14;;;;;;;0.10;0.10;;;;;;;;;;5076597;28;20031;-71
2024/01/15 02:10:39;;;;;;;0.20;0.20;;;;;;;;;;5076329;28;20016;-72
2024/01/15 02:13:05;;;;;;;0.20;0.20;;;;;;;;;;5075659;28;20078;-72
2024/01/15 02:15:30;;;;;;;0.20;0.20;;;;;;;;;;5076119;28;20033;-72
2024/01/15 02:18:04;;;;;;;0.10;0.10;;;;;;;;;;5076134;28;20471;-72
2024/01/15 02:20:30;;;;;;;0.10;0.10;;;;;;;;;;5075128;28;20029;-72
2024/01/15 02:23:12;;;;;;;0.10;0.10;;;;;;;;;;5076387;28;20103;-71
2024/01/15 02:25:41;;;;;;;0.17;0.17;;;;;;;;;;5074862;28;20031;-72
2024/01/15 02:28:11;;;;;;;0.45;0.45;;;;;;;;;;5075961;28;20056;-71
2024/01/15 02:30:40;;;;;;;0.17;0.17;;;;;;;;;;5076262;28;20020;-70
2024/01/15 02:33:06;;;;;;;0.17;0.17;;;;;;;;;;5075899;28;20021;-70
2024/01/15 02:35:32;;;;;;;0.20;0.20;;;;;;;;;;5076047;28;20029;-71
2024/01/15 02:37:58;;;;;;;0.20;0.20;;;;;;;;;;5076063;28;20456;-70
2024/01/15 02:40:24;;;;;;;0.30;0.30;;;;;;;;;;5075778;28;20028;-71
2024/01/15 02:42:49;;;;;;;0.10;0.10;;;;;;;;;;5075741;28;20032;-70
2024/01/15 02:45:15;;;;;;;0.10;0.10;;;;;;;;;;5075684;28;20047;-70
2024/01/15 02:47:40;;;;;;;0.10;0.10;;;;;;;;;;5075908;28;20448;-72
2024/01/15 02:50:06;;;;;;;0.10;0.10;;;;;;;;;;5075650;28;20044;-70
2024/01/15 02:52:32;;;;;;;0.20;0.20;;;;;;;;;;5075846;28;20052;-71
2024/01/15 02:54:57;;;;;;;0.10;0.10;;;;;;;;;;5075426;28;20029;-71
2024/01/15 02:57:23;;;;;;;0.95;0.95;;;;;;;;;;5075411;28;20533;-70
2024/01/15 02:59:48;;;;;;;0.13;0.13;;;;;;;;;;5075520;28;20107;-71
2024/01/15 03:02:14;;;;;;;0.13;0.13;;;;;;;;;;5075291;28;20074;-70
2024/01/15 03:04:43;;;;;;;0.10;0.10;;;;;;;;;;5075266;28;20025;-71
2024/01/15 03:07:09;;;;;;;0.10;0.10;;;;;;;;;;5075559;28;20063;-70
2024/01/15 03:09:34;;;;;;;0.20;0.20;;;;;;;;;;5075180;28;20421;-71
2024/01/15 03:12:00;;;;;;;0.10;0.10;;;;;;;;;;5075107;28;20082;-70
2024/01/15 03:14:26;;;;;;;0.15;0.15;;;;;;;;;;5074971;28;20036;-71
2024/01/15 03:16:52;;;;;;;0.20;0.20;;;;;;;;;;5075295;28;20020;-73
2024/01/15 03:19:17;;;;;;;0.20;0.20;;;;;;;;;;5074951;28;20024;-72
2024/01/15 03:21:43;;;;;;;0.20;0.20;;;;;;;;;;5074245;28;20057;-71
2024/01/15 03:24:08;;;;;;;0.10;0.10;;;;;;;;;;5074990;28;20162;-72
2024/01/15 03:26:34;;;;;;;0.20;0.20;;;;;;;;;;5074557;28;20456;-71
2024/01/15 03:28:59;;;;;;;0.10;0.10;;;;;;;;;;5075363;28;20047;-72
2024/01/15 03:31:25;;;;;;;0.20;0.20;;;;;;;;;;5075016;28;20028;-72
2024/01/15 03:33:50;;;;;;;0.20;0.20;;;;;;;;;;5075254;28;20360;-72
2024/01/15 03:36:16;;;;;;;0.10;0.10;;;;;;;;;;5074886;28;20463;-71
2024/01/15 03:38:42;;;;;;;0.30;0.30;;;;;;;;;;5074642;28;20082;-72
2024/01/15 03:41:07;;;;;;;0.20;0.20;;;;;;;;;;5075087;28;20031;-72
2024/01/15 03:43:33;;;;;;;0.13;0.13;;;;;;;;;;5074491;28;20028;-72
2024/01/15 03:45:58;;;;;;;0.10;0.10;;;;;;;;;;5074706;28;20024;-73
2024/01/15 03:48:24;;;;;;;0.20;0.20;;;;;;;;;;5074419;28;20031;-71
2024/01/15 03:50:50;;;;;;;0.10;0.10;;;;;;;;;;5074412;28;20154;-72
2024/01/15 03:53:16;;;;;;;0.10;0.10;;;;;;;;;;5074161;28;20016;-70
2024/01/15 03:55:42;;;;;;;0.10;0.10;;;;;;;;;;5072886;28;20036;-71
2024/01/15 03:58:07;;;;;;;0.10;0.10;;;;;;;;;;5073175;28;20073;-70
2024/01/15 04:00:33;;;;;;;0.10;0.10;;;;;;;;;;5073854;28;20456;-70
2024/01/15 04:03:00;;;;;;;0.20;0.20;;;;;;;;;;5073953;28;20016;-70
2024/01/15 04:05:25;;;;;;;0.10;0.10;;;;;;;;;;5073051;28;20059;-70
2024/01/15 04:07:51;;;;;;;0.20;0.20;;;;;;;;;;5074024;28;20059;-70
2024/01/15 04:10:16;;;;;;;0.13;0.13;;;;;;;;;;5073507;28;20028;-72
2024/01/15 04:12:42;;;;;;;0.10;0.10;;;;;;;;;;5073998;28;20150;-71
2024/01/15 04:15:08;;;;;;;0.10;0.10;;;;;;;;;;5073975;28;20036;-72
2024/01/15 04:17:33;;;;;;;0.10;0.10;;;;;;;;;;5074105;28;20023;-71
2024/01/15 04:19:59;;;;;;;0.10;0.10;;;;;;;;;;5072857;28;20024;-70
2024/01/15 04:22:25;;;;;;;0.10;0.10;;;;;;;;;;5074151;28;20028;-70
2024/01/15 04:24:50;;;;;;;0.10;0.10;;;;;;;;;;5073829;28;20031;-71
2024/01/15 04:27:16;;;;;;;0.10;0.10;;;;;;;;;;5073763;28;20016;-70
2024/01/15 04:29:42;;;;;;;0.10;0.10;;;;;;;;;;5074609;28;20112;-71
2024/01/15 04:32:07;;;;;;;0.10;0.10;;;;;;;;;;5074082;28;20025;-69
2024/01/15 04:34:33;;;;;;;0.10;0.10;;;;;;;;;;5072808;28;20056;-72
2024/01/15 04:36:59;;;;;;;0.17;0.17;;;;;;;;;;5073757;28;20070;-72
2024/01/15 04:39:24;;;;;;;0.10;0.10;;;;;;;;;;5074187;28;20051;-71
2024/01/15 04:41:50;;;;;;;0.10;0.10;;;;;;;;;;5074465;28;20025;-71
2024/01/15 04:44:15;;;;;;;0.10;0.10;;;;;;;;;;5073902;28;20028;-72
2024/01/15 04:46:41;;;;;;;0.30;0.30;;;;;;;;;;5073879;28;20423;-71
2024/01/15 04:49:07;;;;;;;0.10;0.10;;;;;;;;;;5074130;28;20357;-71
2024/01/15 04:51:32;;;;;;;0.40;0.40;;;;;;;;;;5074082;28;20044;-72
2024/01/15 04:53:58;;;;;;;0.20;0.20;;;;;;;;;;5074110;28;20016;-71
2024/01/15 04:56:23;;;;;;;0.10;0.10;;;;;;;;;;5073509;28;20036;-72
2024/01/15 04:58:49;;;;;;;0.10;0.10;;;;;;;;;;5073456;28;20062;-73
2024/01/15 05:01:15;;;;;;;0.10;0.10;;;;;;;;;;5072842;28;20024;-69
2024/01/15 05:03:41;;;;;;;0.20;0.20;;;;;;;;;;5073743;28;20021;-71
2024/01/15 05:06:07;;;;;;;0.10;0.10;;;;;;;;;;5073459;28;20028;-70
2024/01/15 05:08:33;;;;;;;0.10;0.10;;;;;;;;;;5073398;28;20083;-70
2024/01/15 05:10:58;;;;;;;0.10;0.10;;;;;;;;;;5072383;28;20475;-70
2024/01/15 05:13:24;;;;;;;0.20;0.20;;;;;;;;;;5073340;28;20012;-71
2024/01/15 05:15:50;;;;;;;0.10;0.10;;;;;;;;;;5072387;28;20498;-72
2024/01/15 05:18:16;;;;;;;0.10;0.10;;;;;;;;;;5055705;28;20027;-73
2024/01/15 05:20:42;;;;;;;0.20;0.20;;;;;;;;;;5072500;28;20024;-70
2024/01/15 05:23:07;;;;;;;0.10;0.10;;;;;;;;;;5073852;28;20415;-71
2024/01/15 05:25:33;;;;;;;0.20;0.20;;;;;;;;;;5072451;28;20035;-73
2024/01/15 05:27:59;;;;;;;0.10;0.10;;;;;;;;;;5073119;28;20033;-72
2024/01/15 05:30:25;;;;;;;0.30;0.30;;;;;;;;;;5072245;28;20410;-72
2024/01/15 05:32:51;;;;;;;0.10;0.10;;;;;;;;;;5073219;28;20032;-72
2024/01/15 05:35:17;;;;;;;0.20;0.20;;;;;;;;;;5073029;28;20025;-71
2024/01/15 05:37:44;;;;;;;0.17;0.17;;;;;;;;;;5073461;28;20036;-71
2024/01/15 05:40:10;;;;;;;0.20;0.20;;;;;;;;;;5073349;28;20115;-72
2024/01/15 05:42:36;;;;;;;0.20;0.20;;;;;;;;;;5073272;28;20017;-72
2024/01/15 05:45:04;;;;;;;0.20;0.20;;;;;;;;;;5073025;28;20371;-72
2024/01/15 05:47:30;;;;;;;0.20;0.20;;;;;;;;;;5073288;28;20352;-71
2024/01/15 05:49:56;;;;;;;0.60;0.55;;;;;;;;;;5075210;28;20029;-71
2024/01/15 05:52:22;;;;;;;0.20;0.20;;;;;;;;;;5077168;28;20021;-72
2024/01/15 05:54:49;;;;;;;1.02;0.68;;;;;;;;;;5076386;28;20107;-72
2024/01/15 05:57:15;;;;;;;0.30;0.30;;;;;;;;;;5086233;28;20425;-71
2024/01/15 05:59:40;;;;;;;0.20;0.20;;;;;;;;;;5097007;28;20055;-70
2024/01/15 06:02:06;;;;;;;0.13;0.13;;;;;;;;;;5096675;28;20140;-71
2024/01/15 06:04:32;;;;;;;0.20;0.20;;;;;;;;;;5096621;28;20016;-71
2024/01/15 06:06:58;;;;;;;0.20;0.20;;;;;;;;;;5094479;28;20020;-73
2024/01/15 06:09:24;;;;;;;0.10;0.10;;;;;;;;;;5093556;28;20020;-71
2024/01/15 06:11:49;;;;;;;0.10;0.10;;;;;;;;;;5095243;28;20024;-72
2024/01/15 06:14:15;;;;;;;0.10;0.10;;;;;;;;;;5096521;28;20432;-72
2024/01/15 06:16:40;;;;;;;0.20;0.20;;;;;;;;;;5096564;28;20043;-72
2024/01/15 06:19:06;;;;;;;0.10;0.10;;;;;;;;;;5096873;28;20035;-72
2024/01/15 06:21:32;;;;;;;0.15;0.15;;;;;;;;;;5097153;28;20028;-72
2024/01/15 06:23:57;;;;;;;0.10;0.10;;;;;;;;;;5096334;28;20087;-72
2024/01/15 06:26:23;;;;;;;0.10;0.10;;;;;;;;;;5095903;28;20480;-71
2024/01/15 06:28:48;;;;;;;0.10;0.10;;;;;;;;;;5096223;28;20026;-71
2024/01/15 06:31:14;;;;;;;0.10;0.10;;;;;;;;;;5096165;28;20093;-71
2024/01/15 06:33:40;;;;;;;0.35;0.35;;;;;;;;;;5096545;28;20328;-71
2024/01/15 06:36:05;;;;;;;3.95;0.35;;;;;;;;;;5096268;28;20474;-71
2024/01/15 06:38:31;;;;;;;0.20;0.20;;;;;;;;;;5096108;28;20011;-71
2024/01/15 06:40:57;;;;;;;0.20;0.20;;;;;;;;;;5096178;28;20032;-71
2024/01/15 06:43:22;;;;;;;0.10;0.10;;;;;;;;;;5096040;28;20031;-71
2024/01/15 06:45:48;;;;;;;0.30;0.30;;;;;;;;;;5094297;28;20096;-71
2024/01/15 06:48:16;;;;;;;0.15;0.15;;;;;;;;;;5095549;28;20016;-70
2024/01/15 06:50:41;;;;;;;0.10;0.10;;;;;;;;;;5094000;28;20115;-71
2024/01/15 06:53:07;;;;;;;0.10;0.10;;;;;;;;;;5094650;28;20077;-71
2024/01/15 06:55:32;;;;;;;0.10;0.10;;;;;;;;;;5094741;28;20431;-72
2024/01/15 06:57:58;;;;;;;0.20;0.20;;;;;;;;;;5094857;28;20081;-71
2024/01/15 07:00:24;;;;;;;0.20;0.20;;;;;;;;;;5094318;28;20020;-71
2024/01/15 07:02:49;;;;;;;0.15;0.15;;;;;;;;;;5085903;28;20021;-69
2024/01/15 07:05:15;;;;;;;0.35;0.35;;;;;;;;;;5073336;28;20467;-71
2024/01/15 07:07:40;;;;;;;0.20;0.20;;;;;;;;;;5090007;28;20418;-71
2024/01/15 07:10:06;;;;;;;0.20;0.20;;;;;;;;;;5093021;28;20099;-71
2024/01/15 07:12:32;;;;;;;0.15;0.15;;;;;;;;;;5094375;28;20053;-71
2024/01/15 07:14:58;;;;;;;0.13;0.13;;;;;;;;;;5092455;28;20032;-72
2024/01/15 07:17:23;;;;;;;0.10;0.10;;;;;;;;;;5094929;28;20023;-70
2024/01/15 07:19:49;;;;;;;0.10;0.10;;;;;;;;;;5083642;28;20020;-71
2024/01/15 07:22:17;;;;;;;0.20;0.20;;;;;;;;;;5094792;28;20521;-71
2024/01/15 07:24:43;;;;;;;0.10;0.10;;;;;;;;;;5093426;28;20016;-71
2024/01/15 07:27:08;;;;;;;0.10;0.10;;;;;;;;;;5081044;28;20099;-74
2024/01/15 07:29:37;;;;;;;0.30;0.30;;;;;;;;;;5080922;28;20386;-75
2024/01/15 07:32:03;;;;;;;0.20;0.20;;;;;;;;;;5094141;28;20070;-75
2024/01/15 07:34:28;;;;;;;0.10;0.10;;;;;;;;;;5092507;28;20044;-74
2024/01/15 07:36:54;;;;;;;0.20;0.20;;;;;;;;;;5091518;28;20404;-74
2024/01/15 07:39:20;;;;;;;0.10;0.10;;;;;;;;;;5085256;28;20051;-73
2024/01/15 07:41:45;;;;;;;0.77;0.77;;;;;;;;;;5074816;28;20064;-74
2024/01/15 07:44:11;;;;;;;0.20;0.20;;;;;;;;;;5074760;28;20024;-76
2024/01/15 07:46:37;;;;;;;2.72;2.60;;;;;;;;;;5073007;28;20369;-74
2024/01/15 07:49:03;;;;;;;0.17;0.17;;;;;;;;;;5083017;28;20032;-74
2024/01/15 07:51:29;;;;;;;0.38;0.38;;;;;;;;;;5093057;28;20502;-74
2024/01/15 07:53:58;;;;;;;0.10;0.10;;;;;;;;;;5091587;28;20102;-77
2024/01/15 07:56:27;;;;;;;0.10;0.10;;;;;;;;;;5091937;28;20044;-74
2024/01/15 08:02:27;;;;;;;0.10;0.10;;;;;;;;;;5079252;28;20094;-74
2024/01/15 08:04:52;;;;;;;0.20;0.20;;;;;;;;;;5091668;28;20452;-73
2024/01/15 08:07:18;;;;;;;0.10;0.10;;;;;;;;;;5093180;28;20072;-74
2024/01/15 08:09:44;;;;;;;1.17;1.17;;;;;;;;;;5092268;28;20452;-74
2024/01/15 08:12:10;;;;;;;0.10;0.10;;;;;;;;;;5092052;28;20099;-74
2024/01/15 08:14:35;;;;;;;0.20;0.20;;;;;;;;;;5092984;28;20024;-74
2024/01/15 08:17:01;;;;;;;0.20;0.20;;;;;;;;;;5075045;28;20028;-73
2024/01/15 08:19:27;;;;;;;0.90;0.90;;;;;;;;;;5093248;28;20023;-74
2024/01/15 08:21:53;;;;;;;1.13;0.95;;;;;;;;;;5073896;28;20096;-74
2024/01/15 08:24:18;;;;;;;0.17;0.17;;;;;;;;;;5092208;28;20114;-74
2024/01/15 08:26:45;;;;;;;0.10;0.10;;;;;;;;;;5076455;28;20012;-74
2024/01/15 08:29:10;;;;;;;0.20;0.20;;;;;;;;;;5094021;28;20099;-74
2024/01/15 08:31:36;;;;;;;0.85;0.85;;;;;;;;;;5080483;28;20111;-74
2024/01/15 08:34:02;;;;;;;0.15;0.15;;;;;;;;;;5091980;28;20015;-74
2024/01/15 08:36:30;;;;;;;0.10;0.10;;;;;;;;;;5091904;28;20036;-74
2024/01/15 08:38:56;;;;;;;2.45;2.30;;;;;;;;;;5093069;28;20020;-74
2024/01/15 08:41:21;;;;;;;0.38;0.38;;;;;;;;;;5093182;28;20043;-74
2024/01/15 08:43:47;;;;;;;1.65;1.55;;;;;;;;;;5091281;28;20024;-74
2024/01/15 08:46:13;;;;;;;0.20;0.20;;;;;;;;;;5074976;28;20118;-74
2024/01/15 08:48:39;;;;;;;0.15;0.15;;;;;;;;;;5091847;28;20031;-74
2024/01/15 08:51:05;;;;;;;0.20;0.20;;;;;;;;;;5091724;28;20097;-73
2024/01/15 08:53:31;;;;;;;0.20;0.20;;;;;;;;;;5093266;28;20081;-74
2024/01/15 08:55:57;;;;;;;2.83;2.72;;;;;;;;;;5087754;28;20044;-76
2024/01/15 08:58:23;;;;;;;0.10;0.10;;;;;;;;;;5071527;28;20433;-76
2024/01/15 09:00:49;;;;;;;0.20;0.20;;;;;;;;;;5073583;28;20016;-76
2024/01/15 09:03:14;;;;;;;1.70;1.60;;;;;;;;;;5073768;28;20020;-74
2024/01/15 09:05:40;;;;;;;0.30;0.30;;;;;;;;;;5073690;28;20017;-74
2024/01/15 09:08:06;;;;;;;0.10;0.10;;;;;;;;;;5073273;28;20025;-76
2024/01/15 09:10:32;;;;;;;0.10;0.10;;;;;;;;;;5073901;28;20020;-76
2024/01/15 09:12:57;;;;;;;0.20;0.20;;;;;;;;;;5072491;28;20020;-76
2024/01/15 09:15:23;;;;;;;0.10;0.10;;;;;;;;;;5072652;28;20415;-75
2024/01/15 09:17:49;;;;;;;0.20;0.20;;;;;;;;;;5073721;28;20025;-76
2024/01/15 09:20:15;;;;;;;0.10;0.10;;;;;;;;;;5071893;28;20414;-75
2024/01/15 09:22:42;;;;;;;0.30;0.30;;;;;;;;;;5072278;28;20039;-74
2024/01/15 09:25:08;;;;;;;0.10;0.10;;;;;;;;;;5077677;28;20070;-75
2024/01/15 09:27:34;;;;;;;0.10;0.10;;;;;;;;;;5075837;28;20032;-74
2024/01/15 09:29:59;;;;;;;2.47;2.38;;;;;;;;;;5077623;28;20438;-75
2024/01/15 09:32:25;;;;;;;0.10;0.10;;;;;;;;;;5077027;28;20070;-74
2024/01/15 09:34:50;;;;;;;0.10;0.10;;;;;;;;;;5077427;28;20117;-75
2024/01/15 09:37:16;;;;;;;0.20;0.20;;;;;;;;;;5092798;28;20025;-73
2024/01/15 09:39:42;;;;;;;0.10;0.10;;;;;;;;;;5076466;28;20021;-75
2024/01/15 09:42:08;;;;;;;0.17;0.17;;;;;;;;;;5083166;28;20028;-74
2024/01/15 09:44:34;;;;;;;0.10;0.10;;;;;;;;;;5098407;28;20463;-74
2024/01/15 09:47:00;;;;;;;0.10;0.10;;;;;;;;;;5099182;28;20055;-75
2024/01/15 09:49:26;;;;;;;0.20;0.20;;;;;;;;;;5096807;28;20104;-75
2024/01/15 09:51:52;;;;;;;0.10;0.10;;;;;;;;;;5078930;28;20078;-73
2024/01/15 09:54:18;;;;;;;0.10;0.10;;;;;;;;;;5096357;28;20018;-74
2024/01/15 09:56:47;;;;;;;0.10;0.10;;;;;;;;;;5097466;28;20028;-73
2024/01/15 09:59:15;;;;;;;0.10;0.10;;;;;;;;;;5096924;28;20360;-73
2024/01/15 10:01:41;;;;;;;0.20;0.20;;;;;;;;;;5078741;28;20020;-74
2024/01/15 10:04:07;;;;;;;0.20;0.20;;;;;;;;;;5096644;28;20475;-74
2024/01/15 10:06:33;;;;;;;0.13;0.13;;;;;;;;;;5095536;28;20032;-74
2024/01/15 10:09:00;;;;;;;0.20;0.20;;;;;;;;;;5078516;28;20115;-74
2024/01/15 10:11:26;;;;;;;0.20;0.20;;;;;;;;;;5096199;28;20116;-72
2024/01/15 10:13:53;;;;;;;0.10;0.10;;;;;;;;;;5094693;28;20351;-73
2024/01/15 10:16:19;;;;;;;0.38;0.38;;;;;;;;;;5078600;28;20067;-73
2024/01/15 10:18:45;;;;;;;0.20;0.20;;;;;;;;;;5078627;28;20024;-74
2024/01/15 10:21:11;;;;;;;0.17;0.17;;;;;;;;;;5097271;28;20024;-74
2024/01/15 10:23:36;;;;;;;0.10;0.10;;;;;;;;;;5096690;28;20106;-72
2024/01/15 10:26:03;;;;;;;0.20;0.20;;;;;;;;;;5094670;28;20016;-76
2024/01/15 10:28:31;;;;;;;0.10;0.10;;;;;;;;;;5078082;28;20494;-73
2024/01/15 10:30:58;;;;;;;0.30;0.30;;;;;;;;;;5096420;28;20024;-74
2024/01/15 10:33:27;;;;;;;0.20;0.20;;;;;;;;;;5078228;28;20032;-74
2024/01/15 10:35:55;;;;;;;0.17;0.17;;;;;;;;;;5078258;28;20562;-75
2024/01/15 10:38:22;;;;;;;0.10;0.10;;;;;;;;;;5094703;28;20359;-75
2024/01/15 10:40:48;;;;;;;0.13;0.13;;;;;;;;;;5094892;28;20012;-75
2024/01/15 10:43:14;;;;;;;0.10;0.10;;;;;;;;;;5094816;28;20094;-74
2024/01/15 10:45:39;;;;;;;0.10;0.10;;;;;;;;;;5094990;28;20119;-75
2024/01/15 10:48:06;;;;;;;0.10;0.10;;;;;;;;;;5096296;28;20023;-74
2024/01/15 10:50:32;;;;;;;0.10;0.10;;;;;;;;;;5094699;28;20371;-75
2024/01/15 10:52:57;;;;;;;0.20;0.20;;;;;;;;;;5095634;28;20032;-75
2024/01/15 10:55:24;;;;;;;0.10;0.10;;;;;;;;;;5077289;28;20376;-75
2024/01/15 10:57:50;;;;;;;0.10;0.10;;;;;;;;;;5075909;28;20020;-74
2024/01/15 11:00:15;;;;;;;0.43;0.43;;;;;;;;;;5092189;28;20020;-74
2024/01/15 11:02:42;;;;;;;0.20;0.20;;;;;;;;;;5094859;28;20041;-74
2024/01/15 11:05:08;;;;;;;0.52;0.50;;;;;;;;;;5093200;28;20078;-74
2024/01/15 11:07:34;;;;;;;5.43;5.07;;;;;;;;;;5094171;28;20028;-75
2024/01/15 11:10:03;;;;;;;0.65;0.32;;;;;;;;;;5094154;28;20020;-75
2024/01/15 11:12:29;;;;;;;0.20;0.20;;;;;;;;;;5092748;28;20069;-75
2024/01/15 11:15:04;;;;;;;0.20;0.20;;;;;;;;;;5086478;28;20464;-75
2024/01/15 11:17:49;;;;;;;0.10;0.10;;;;;;;;;;5093764;28;20016;-76
2024/01/15 11:20:15;;;;;;;0.10;0.10;;;;;;;;;;5092066;28;20028;-76
2024/01/15 11:22:46;;;;;;;5.78;2.55;;;;;;;;;;5094774;28;20022;-75
2024/01/15 11:25:15;;;;;;;0.30;0.20;;;;;;;;;;5094940;28;20085;-74
2024/01/15 11:27:44;;;;;;;2.13;0.43;;;;;;;;;;5095631;28;20052;-75
2024/01/15 11:30:13;;;;;;;0.63;0.55;;;;;;;;;;5095612;28;20024;-75
2024/01/15 11:32:42;;;;;;;0.52;0.35;;;;;;;;;;5093827;28;20073;-74
2024/01/15 11:35:13;;;;;;;0.52;0.43;;;;;;;;;;5095219;28;20032;-75
2024/01/15 11:37:51;;;;;;;0.10;0.10;;;;;;;;;;5077904;28;20069;-75
2024/01/15 11:40:39;;;;;;;0.25;0.25;;;;;;;;;;5096054;28;20051;-74
2024/01/15 11:43:06;;;;;;;3.45;1.73;;;;;;;;;;5097063;28;20073;-75
2024/01/15 11:45:33;;;;;;;2.60;0.65;;;;;;;;;;5095146;28;20034;-75
2024/01/15 11:48:13;;;;;;;0.90;0.60;;;;;;;;;;5096081;28;20031;-75
2024/01/15 11:50:46;;;;;;;0.50;0.40;;;;;;;;;;5095895;28;20047;-75
2024/01/15 11:53:21;;;;;;;0.20;0.20;;;;;;;;;;5094808;28;20024;-74
2024/01/15 11:55:48;;;;;;;0.50;0.30;;;;;;;;;;5094747;28;20032;-75
2024/01/15 11:58:16;;;;;;;0.10;0.10;;;;;;;;;;5094402;28;20385;-74
2024/01/15 12:00:47;;;;;;;0.10;0.10;;;;;;;;;;5094463;28;20352;-74
2024/01/15 12:03:12;;;;;;;0.10;0.10;;;;;;;;;;5093515;28;20032;-75
2024/01/15 12:05:38;;;;;;;0.28;0.28;;;;;;;;;;5094101;28;20085;-75
2024/01/15 12:08:10;;;;;;;3.08;0.95;;;;;;;;;;5093489;28;20031;-75
2024/01/15 12:10:37;;;;;;;0.20;0.20;;;;;;;;;;5076476;28;20043;-75
2024/01/15 12:13:15;;;;;;;0.20;0.20;;;;;;;;;;5092826;28;20125;-74
2024/01/15 12:15:45;;;;;;;0.20;0.20;;;;;;;;;;5094150;28;20040;-75
2024/01/15 12:18:11;;;;;;;0.35;0.35;;;;;;;;;;5093899;28;20491;-75
2024/01/15 12:20:37;;;;;;;2.47;0.50;;;;;;;;;;5093768;28;20047;-74
2024/01/15 12:23:03;;;;;;;0.30;0.30;;;;;;;;;;5094572;28;20066;-72
2024/01/15 12:25:30;;;;;;;0.13;0.13;;;;;;;;;;5093194;28;20056;-71
2024/01/15 12:27:56;;;;;;;0.95;0.40;;;;;;;;;;5095132;28;20023;-71
2024/01/15 12:30:21;;;;;;;0.70;0.70;;;;;;;;;;5091731;28;20351;-72
2024/01/15 12:32:47;;;;;;;0.20;0.20;;;;;;;;;;5093391;28;20080;-73
2024/01/15 12:35:13;;;;;;;44.38;1.73;;;;;;;;;;5083479;28;20032;-73
2024/01/15 12:37:39;;;;;;;7.78;1.58;;;;;;;;;;5092586;28;20104;-72
2024/01/15 12:40:12;;;;;;;0.88;0.50;;;;;;;;;;5093797;28;20032;-72
2024/01/15 12:42:39;;;;;;;1.65;1.05;;;;;;;;;;5092684;28;20055;-71
2024/01/15 12:45:06;;;;;;;0.25;0.22;;;;;;;;;;5092818;28;20556;-72
2024/01/15 12:47:31;;;;;;;0.20;0.20;;;;;;;;;;5092767;28;20051;-73
2024/01/15 12:49:59;;;;;;;2.85;2.60;;;;;;;;;;5093058;28;20051;-72
2024/01/15 12:52:27;;;;;;;0.30;0.30;;;;;;;;;;5055755;28;20025;-72
2024/01/15 12:54:52;;;;;;;0.20;0.20;;;;;;;;;;5073976;28;20033;-72
2024/01/15 12:57:18;;;;;;;6.07;2.17;;;;;;;;;;5074674;28;20048;-72
2024/01/15 12:59:45;;;;;;;0.10;0.10;;;;;;;;;;5079963;28;20031;-72
2024/01/15 13:02:13;;;;;;;0.20;0.20;;;;;;;;;;5080343;28;20024;-72
2024/01/15 13:04:39;;;;;;;4.63;2.20;;;;;;;;;;5080891;28;20052;-74
2024/01/15 13:07:05;;;;;;;2.63;0.65;;;;;;;;;;5080634;28;20393;-73
2024/01/15 13:09:32;;;;;;;0.17;0.17;;;;;;;;;;5080577;28;20402;-73
2024/01/15 13:11:57;;;;;;;3.65;1.23;;;;;;;;;;5080047;28;20021;-72
2024/01/15 13:14:23;;;;;;;5.18;1.40;;;;;;;;;;5080036;28;20019;-73
2024/01/15 13:16:49;;;;;;;1.75;1.65;;;;;;;;;;5079907;28;20368;-73
2024/01/15 13:19:14;;;;;;;1.10;0.20;;;;;;;;;;5081038;28;20448;-72
2024/01/15 13:21:40;;;;;;;11.77;2.20;;;;;;;;;;5080450;28;20024;-73
2024/01/15 13:24:06;;;;;;;0.55;0.50;;;;;;;;;;5092129;28;20456;-71
2024/01/15 13:26:32;;;;;;;2.53;0.90;;;;;;;;;;5098995;28;20032;-72
2024/01/15 13:28:59;;;;;;;2.72;1.65;;;;;;;;;;5080755;28;20115;-72
2024/01/15 13:31:25;;;;;;;5.43;2.13;;;;;;;;;;5079817;28;20009;-71
2024/01/15 13:33:51;;;;;;;0.20;0.20;;;;;;;;;;5079637;28;20468;-72
2024/01/15 13:36:17;;;;;;;1.15;0.77;;;;;;;;;;5080406;28;20032;-72
2024/01/15 13:38:42;;;;;;;2.53;0.88;;;;;;;;;;5079932;28;20047;-72
2024/01/15 13:41:08;;;;;;;0.40;0.40;;;;;;;;;;5080104;28;20028;-72
2024/01/15 13:43:33;;;;;;;0.20;0.20;;;;;;;;;;5082144;28;20390;-73
2024/01/15 13:46:00;;;;;;;0.20;0.20;;;;;;;;;;5082177;28;20474;-72
2024/01/15 13:48:26;;;;;;;0.20;0.20;;;;;;;;;;5079430;28;20025;-72
2024/01/15 13:50:52;;;;;;;9.65;2.25;;;;;;;;;;5081551;28;20483;-73
2024/01/15 13:53:19;;;;;;;1.05;0.32;;;;;;;;;;5098926;28;20051;-73
2024/01/15 13:55:44;;;;;;;1.77;0.50;;;;;;;;;;5098910;28;20024;-73
2024/01/15 13:58:10;;;;;;;1.67;0.75;;;;;;;;;;5100113;28;20092;-72
2024/01/15 14:00:36;;;;;;;3.88;1.10;;;;;;;;;;5100258;28;20031;-72
2024/01/15 14:03:02;;;;;;;0.90;0.73;;;;;;;;;;5099841;28;20456;-72
2024/01/15 14:05:28;;;;;;;1.55;1.17;;;;;;;;;;5100395;28;20073;-72
2024/01/15 14:07:55;;;;;;;1.17;0.65;;;;;;;;;;5099935;28;20375;-71
2024/01/15 14:10:20;;;;;;;0.52;0.43;;;;;;;;;;5095870;28;20016;-71
2024/01/15 14:12:46;;;;;;;0.55;0.55;;;;;;;;;;5097114;28;20066;-70
2024/01/15 14:15:12;;;;;;;0.77;0.77;;;;;;;;;;5096018;28;20035;-72
2024/01/15 14:17:37;;;;;;;1.65;0.20;;;;;;;;;;5095885;28;20062;-72
2024/01/15 14:20:05;;;;;;;0.15;0.15;;;;;;;;;;5094089;28;20020;-74
2024/01/15 14:22:30;;;;;;;0.20;0.20;;;;;;;;;;5095997;28;20483;-73
2024/01/15 14:24:56;;;;;;;0.20;0.20;;;;;;;;;;5095343;28;20028;-73
2024/01/15 14:27:22;;;;;;;0.20;0.20;;;;;;;;;;5095018;28;20416;-72
2024/01/15 14:29:48;;;;;;;1.60;0.57;;;;;;;;;;5079714;28;20016;-72
2024/01/15 14:32:14;;;;;;;1.55;1.13;;;;;;;;;;5075352;28;20116;-73
2024/01/15 14:34:39;;;;;;;0.30;0.30;;;;;;;;;;5075445;28;20021;-72
2024/01/15 14:37:06;;;;;;;7.07;1.65;;;;;;;;;;5076437;28;20017;-72
2024/01/15 14:39:34;;;;;;;0.20;0.20;;;;;;;;;;5075846;28;20020;-73
2024/01/15 14:42:00;;;;;;;2.17;1.05;;;;;;;;;;5074729;28;20086;-72